Schaerbeek, Belgium
Current Conditions -  °F | °C
As of 2:20 PM on Saturday 25 Oct 2014 (Local Time) from EBBR Reporting Station
Broken Clouds Broken Clouds  
Wind Chill: 57°   Ceiling: 800
Heat Index: 57°   Visibility: 6mi
Dew Point: 54°   Wind: 9mph
Humidity: 88%   Direction: 240°WSW
Pressure: 30.09"   Gusts: NA
Location:  50.86°N, 4.39°E
Report Text: EBBR 251220Z 24008KT 9999 BKN008 14/12 Q1019 NOSIG
Loading
Personal Weather Stations






























Interactive Weather Map New forecast layout! Learn more

10-Day Weather Forecast

Advertisements
Track Severe Weather on mobile